Time;durP1;ratioP1;P1;durP2;ratioP2;P2;SDS_P1;SDS_P2;PMS_P1;PMS_P2;Temp;Humidity;BMP_temperature;BMP_pressure;BME280_temperature;BME280_humidity;BME280_pressure;Samples;Min_cycle;Max_cycle;Signal;HPM_P1;HPM_P2
2022/10/15 00:01:43;;;;;;;32.85;17.85;;;12.20;99.90;;;;;;5126301;27;20092;-68
2022/10/15 00:04:09;;;;;;;30.42;17.92;;;12.20;99.90;;;;;;5128554;27;20514;-69
2022/10/15 00:06:35;;;;;;;25.50;17.75;;;12.20;99.90;;;;;;5130841;27;20046;-68
2022/10/15 00:09:01;;;;;;;25.52;17.60;;;12.20;99.90;;;;;;5132074;27;20058;-85
2022/10/15 00:11:28;;;;;;;29.63;19.13;;;12.20;99.90;;;;;;5132039;27;20102;-68
2022/10/15 00:13:56;;;;;;;35.78;19.00;;;12.20;99.90;;;;;;5131902;27;20503;-68
2022/10/15 00:16:26;;;;;;;35.10;19.20;;;12.20;99.90;;;;;;5149992;27;20045;-68
2022/10/15 00:18:54;;;;;;;35.65;20.25;;;12.20;99.90;;;;;;5150510;27;20042;-67
2022/10/15 00:21:20;;;;;;;40.20;20.92;;;12.10;99.90;;;;;;5150420;27;20039;-68
2022/10/15 00:23:47;;;;;;;28.75;19.25;;;12.20;99.90;;;;;;5114440;27;20057;-68
2022/10/15 00:26:16;;;;;;;38.80;20.60;;;12.20;99.90;;;;;;5130865;27;20047;-68
2022/10/15 00:28:42;;;;;;;31.58;20.38;;;12.20;99.90;;;;;;5130961;27;20059;-69
2022/10/15 00:31:11;;;;;;;36.22;21.05;;;12.10;99.90;;;;;;5131594;27;20869;-68
2022/10/15 00:33:37;;;;;;;41.42;20.92;;;12.10;99.90;;;;;;5130872;27;20049;-68
2022/10/15 00:36:12;;;;;;;42.53;22.58;;;12.10;99.90;;;;;;5131407;27;20544;-69
2022/10/15 00:38:38;;;;;;;46.00;22.55;;;12.10;99.90;;;;;;5131017;27;20050;-67
2022/10/15 00:41:06;;;;;;;36.35;21.90;;;12.10;99.90;;;;;;5131936;27;20050;-68
2022/10/15 00:43:57;;;;;;;33.78;20.88;;;12.10;99.90;;;;;;5131149;27;20043;-68
2022/10/15 00:46:29;;;;;;;43.28;22.58;;;12.10;99.90;;;;;;5102173;27;20056;-77
2022/10/15 00:49:00;;;;;;;37.08;21.88;;;12.10;99.90;;;;;;5130287;27;20055;-68
2022/10/15 00:51:31;;;;;;;37.47;22.33;;;12.10;99.90;;;;;;5130676;27;20046;-68
2022/10/15 00:53:58;;;;;;;34.85;21.77;;;12.10;99.90;;;;;;5149575;27;20492;-68
2022/10/15 00:56:26;;;;;;;35.22;22.45;;;12.10;99.90;;;;;;5140799;27;20043;-68
2022/10/15 00:58:53;;;;;;;32.80;21.70;;;12.10;99.90;;;;;;5129488;27;20038;-70
2022/10/15 01:01:20;;;;;;;34.97;21.95;;;12.10;99.90;;;;;;5130998;27;20054;-68
2022/10/15 01:03:46;;;;;;;33.30;20.95;;;12.10;99.90;;;;;;5133221;27;20456;-87
2022/10/15 01:06:11;;;;;;;34.50;21.75;;;12.10;99.90;;;;;;5154377;27;20362;-84
2022/10/15 01:08:37;;;;;;;40.72;23.90;;;12.10;99.90;;;;;;5157662;27;20053;-70
2022/10/15 01:11:06;;;;;;;41.10;22.33;;;12.10;99.90;;;;;;5135308;27;20054;-69
2022/10/15 01:13:37;;;;;;;37.22;22.92;;;12.10;99.90;;;;;;5133020;27;20114;-67
2022/10/15 01:16:30;;;;;;;35.35;23.38;;;12.10;99.90;;;;;;5148348;27;20039;-68
2022/10/15 01:19:03;;;;;;;35.45;22.35;;;12.10;99.90;;;;;;5149206;27;20622;-67
2022/10/15 01:21:50;;;;;;;39.63;21.75;;;12.10;99.90;;;;;;5130280;27;20041;-67
2022/10/15 01:24:41;;;;;;;37.33;23.38;;;12.20;99.90;;;;;;5130737;27;20503;-67
2022/10/15 01:27:19;;;;;;;38.13;23.50;;;12.10;99.90;;;;;;5126675;27;20070;-67
2022/10/15 01:30:03;;;;;;;43.15;24.20;;;12.20;99.90;;;;;;5127509;27;20043;-68
2022/10/15 01:32:35;;;;;;;39.17;22.45;;;12.20;99.90;;;;;;5124779;27;20501;-68
2022/10/15 01:35:12;;;;;;;38.10;22.08;;;12.10;99.90;;;;;;5108438;27;20050;-68
2022/10/15 01:37:51;;;;;;;41.75;23.98;;;12.10;99.90;;;;;;5127075;27;20051;-87
2022/10/15 01:40:24;;;;;;;43.63;23.17;;;12.10;99.90;;;;;;5127247;27;20051;-67
2022/10/15 01:43:01;;;;;;;34.65;21.95;;;12.10;99.90;;;;;;5109378;27;20050;-68
2022/10/15 01:45:44;;;;;;;43.35;24.02;;;12.10;99.90;;;;;;5102813;28;20050;-84
2022/10/15 01:48:11;;;;;;;34.72;22.63;;;12.10;99.90;;;;;;5122771;27;20039;-68
2022/10/15 01:50:42;;;;;;;37.20;22.35;;;12.10;99.90;;;;;;5118286;27;20043;-89
2022/10/15 01:53:12;;;;;;;40.25;22.60;;;12.10;99.90;;;;;;5127523;27;20042;-69
2022/10/15 01:55:41;;;;;;;35.03;23.63;;;12.10;99.90;;;;;;5122843;27;20088;-68
2022/10/15 01:58:08;;;;;;;35.50;21.20;;;12.10;99.90;;;;;;5121634;27;20408;-67
2022/10/15 02:00:34;;;;;;;41.70;22.98;;;12.10;99.90;;;;;;5126006;27;20051;-69
2022/10/15 02:03:01;;;;;;;39.97;21.80;;;12.10;99.90;;;;;;5113118;27;20472;-68
2022/10/15 02:05:37;;;;;;;33.15;21.30;;;12.10;99.90;;;;;;5108785;27;20393;-67
2022/10/15 02:08:08;;;;;;;43.00;22.83;;;12.10;99.90;;;;;;5118580;27;20135;-68
2022/10/15 02:11:05;;;;;;;34.00;22.27;;;12.10;99.90;;;;;;5126499;27;20055;-68
2022/10/15 02:13:57;;;;;;;36.45;23.05;;;12.10;99.90;;;;;;5102002;28;20493;-67
2022/10/15 02:16:32;;;;;;;36.58;20.67;;;12.10;99.90;;;;;;5091915;27;20095;-69
2022/10/15 02:19:42;;;;;;;35.10;22.40;;;12.10;99.90;;;;;;5125538;27;20481;-77
2022/10/15 02:22:45;;;;;;;37.33;22.20;;;12.10;99.90;;;;;;5107786;27;20153;-75
2022/10/15 02:25:21;;;;;;;31.77;20.38;;;12.10;99.90;;;;;;5085049;27;20055;-68
2022/10/15 02:27:50;;;;;;;39.92;22.55;;;12.10;99.90;;;;;;5124505;27;20053;-73
2022/10/15 02:30:16;;;;;;;34.10;22.77;;;12.10;99.90;;;;;;5111435;27;20054;-68
2022/10/15 02:32:46;;;;;;;37.33;22.25;;;12.10;99.90;;;;;;5147933;27;20527;-68
2022/10/15 02:35:13;;;;;;;37.67;23.35;;;12.10;99.90;;;;;;5127492;27;20045;-68
2022/10/15 02:37:45;;;;;;;34.33;21.40;;;12.10;99.90;;;;;;5129778;27;20058;-69
2022/10/15 02:40:11;;;;;;;38.28;21.73;;;12.10;99.90;;;;;;5128723;27;20042;-68
2022/10/15 02:42:37;;;;;;;39.38;23.30;;;12.10;99.90;;;;;;5129359;27;20095;-68
2022/10/15 02:45:03;;;;;;;36.17;22.17;;;12.10;99.90;;;;;;5128315;27;20039;-68
2022/10/15 02:47:28;;;;;;;37.08;21.67;;;12.10;99.90;;;;;;5141708;27;20084;-68
2022/10/15 02:49:54;;;;;;;31.30;21.73;;;12.10;99.90;;;;;;5114988;27;20549;-67
2022/10/15 02:52:20;;;;;;;35.95;21.45;;;12.10;99.90;;;;;;5134186;27;20035;-68
2022/10/15 02:54:45;;;;;;;37.00;21.10;;;12.10;99.90;;;;;;5129154;27;20046;-70
2022/10/15 02:57:11;;;;;;;35.33;20.50;;;12.10;99.90;;;;;;5119270;27;20478;-67
2022/10/15 02:59:37;;;;;;;32.00;21.00;;;12.10;99.90;;;;;;5121845;27;20400;-68
2022/10/15 03:02:02;;;;;;;33.65;21.60;;;12.10;99.90;;;;;;5146894;27;20042;-81
2022/10/15 03:04:28;;;;;;;35.63;21.15;;;12.10;99.90;;;;;;5146800;27;20441;-68
2022/10/15 03:06:54;;;;;;;33.60;20.73;;;12.00;99.90;;;;;;5147565;27;20480;-67
2022/10/15 03:09:19;;;;;;;35.97;21.60;;;12.00;99.90;;;;;;5128935;27;20435;-67
2022/10/15 03:11:45;;;;;;;33.58;21.25;;;12.00;99.90;;;;;;5148029;27;20039;-79
2022/10/15 03:14:11;;;;;;;36.15;21.42;;;12.00;99.90;;;;;;5127888;27;20050;-82
2022/10/15 03:16:37;;;;;;;32.15;21.25;;;12.00;99.90;;;;;;5128625;27;20035;-67
2022/10/15 03:19:02;;;;;;;38.15;21.45;;;12.00;99.90;;;;;;5126776;27;20055;-67
2022/10/15 03:21:29;;;;;;;34.50;22.42;;;12.00;99.90;;;;;;5110548;28;20074;-70
2022/10/15 03:23:59;;;;;;;35.97;21.73;;;12.00;99.90;;;;;;5143286;27;20039;-68
2022/10/15 03:26:25;;;;;;;31.73;20.67;;;12.00;99.90;;;;;;5128565;27;20046;-68
2022/10/15 03:28:51;;;;;;;37.00;21.92;;;12.00;99.90;;;;;;5128623;27;20057;-67
2022/10/15 03:31:17;;;;;;;41.65;22.30;;;12.00;99.90;;;;;;5146547;27;20039;-67
2022/10/15 03:33:42;;;;;;;36.22;21.65;;;12.00;99.90;;;;;;5141722;27;20042;-79
2022/10/15 03:36:08;;;;;;;40.15;22.50;;;11.90;99.90;;;;;;5128257;27;20477;-67
2022/10/15 03:38:34;;;;;;;39.67;21.63;;;12.00;99.90;;;;;;5147267;27;20053;-81
2022/10/15 03:41:00;;;;;;;36.67;22.48;;;11.90;99.90;;;;;;5126211;27;20039;-75
2022/10/15 03:43:25;;;;;;;38.97;23.73;;;11.90;99.90;;;;;;5150634;27;20045;-67
2022/10/15 03:45:51;;;;;;;39.15;22.63;;;12.00;99.90;;;;;;5132984;27;20047;-70
2022/10/15 03:48:18;;;;;;;35.60;22.50;;;12.00;99.90;;;;;;5132189;27;20031;-67
2022/10/15 03:50:45;;;;;;;37.05;23.75;;;11.90;99.90;;;;;;5132525;27;20090;-67
2022/10/15 03:53:12;;;;;;;38.70;23.48;;;11.90;99.90;;;;;;5131714;27;20453;-68
2022/10/15 03:55:37;;;;;;;37.22;22.08;;;12.00;99.90;;;;;;5151690;27;20041;-68
2022/10/15 03:58:03;;;;;;;37.70;22.20;;;12.00;99.90;;;;;;5131290;27;20399;-67
2022/10/15 04:00:29;;;;;;;36.85;23.88;;;11.90;99.90;;;;;;5132456;27;20042;-72
2022/10/15 04:02:55;;;;;;;37.25;23.17;;;11.90;99.90;;;;;;5131675;27;20438;-75
2022/10/15 04:05:20;;;;;;;34.80;22.73;;;12.00;99.90;;;;;;5131195;27;20046;-68
2022/10/15 04:07:46;;;;;;;34.92;22.45;;;11.90;99.90;;;;;;5132339;27;20082;-67
2022/10/15 04:10:12;;;;;;;33.33;22.77;;;11.90;99.90;;;;;;5150105;27;20454;-67
2022/10/15 04:12:37;;;;;;;38.83;21.98;;;11.90;99.90;;;;;;5132583;27;20057;-68
2022/10/15 04:15:03;;;;;;;36.47;22.27;;;11.90;99.90;;;;;;5131457;27;20177;-80
2022/10/15 04:17:29;;;;;;;38.05;21.92;;;12.00;99.90;;;;;;5132471;27;20126;-67
2022/10/15 04:19:55;;;;;;;36.58;23.10;;;11.90;99.90;;;;;;5131770;27;20042;-68
2022/10/15 04:22:20;;;;;;;38.42;20.85;;;12.00;99.90;;;;;;5150221;27;20035;-67
2022/10/15 04:24:46;;;;;;;33.53;22.00;;;12.00;99.90;;;;;;5149721;27;20051;-82
2022/10/15 04:27:13;;;;;;;37.35;21.77;;;11.90;99.90;;;;;;5131399;27;20133;-68
2022/10/15 04:29:39;;;;;;;37.97;22.05;;;12.00;99.90;;;;;;5131867;27;20051;-68
2022/10/15 04:32:04;;;;;;;33.00;20.50;;;11.90;99.90;;;;;;5114256;27;20046;-82
2022/10/15 04:34:30;;;;;;;30.35;19.77;;;11.90;99.90;;;;;;5150482;27;20039;-68
2022/10/15 04:36:56;;;;;;;33.13;20.85;;;12.00;99.90;;;;;;5130789;27;20046;-67
2022/10/15 04:39:21;;;;;;;35.65;22.88;;;12.00;99.90;;;;;;5131461;27;20039;-67
2022/10/15 04:41:47;;;;;;;41.70;21.65;;;11.90;99.90;;;;;;5131141;27;20038;-70
2022/10/15 04:44:13;;;;;;;36.45;21.20;;;11.90;99.90;;;;;;5131079;27;20396;-67
2022/10/15 04:46:39;;;;;;;32.90;21.48;;;11.90;99.90;;;;;;5130693;27;20404;-69
2022/10/15 04:49:05;;;;;;;37.63;21.02;;;11.90;99.90;;;;;;5149519;27;20125;-68
2022/10/15 04:51:30;;;;;;;36.85;21.40;;;11.90;99.90;;;;;;5130008;27;20387;-68
2022/10/15 04:53:56;;;;;;;36.83;21.67;;;12.00;99.90;;;;;;5131004;27;20103;-68
2022/10/15 04:56:22;;;;;;;32.92;20.88;;;11.90;99.90;;;;;;5130741;27;20050;-68
2022/10/15 04:58:49;;;;;;;36.05;21.20;;;12.00;99.90;;;;;;5130805;27;20061;-68
2022/10/15 05:01:18;;;;;;;39.38;21.38;;;12.00;99.90;;;;;;5130960;27;20081;-83
2022/10/15 05:03:45;;;;;;;32.90;21.02;;;12.00;99.90;;;;;;5131027;27;20047;-68
2022/10/15 05:06:14;;;;;;;34.30;20.95;;;12.00;99.90;;;;;;5130901;27;20038;-68
2022/10/15 05:08:43;;;;;;;34.53;22.40;;;12.00;99.90;;;;;;5113520;27;20038;-68
2022/10/15 05:11:18;;;;;;;42.30;22.33;;;11.90;99.90;;;;;;5129827;27;20047;-68
2022/10/15 05:13:44;;;;;;;32.50;20.60;;;11.90;99.90;;;;;;5131467;27;20050;-69
2022/10/15 05:16:14;;;;;;;30.63;20.90;;;11.90;99.90;;;;;;5118057;27;20066;-68
2022/10/15 05:18:40;;;;;;;;;;;12.00;99.90;;;;;;5149528;27;20198;-69
2022/10/15 05:21:07;;;;;;;38.10;20.42;;;11.90;99.90;;;;;;5130569;27;20049;-69
2022/10/15 05:23:33;;;;;;;40.05;22.05;;;11.90;99.90;;;;;;5149100;27;20042;-69
2022/10/15 05:26:00;;;;;;;35.20;21.60;;;11.90;99.90;;;;;;5130004;27;20047;-86
2022/10/15 05:28:26;;;;;;;36.08;21.60;;;11.90;99.90;;;;;;5129409;27;20103;-81
2022/10/15 05:30:51;;;;;;;38.33;22.25;;;11.90;99.90;;;;;;5130860;27;20426;-68
2022/10/15 05:33:17;;;;;;;41.70;22.92;;;11.90;99.90;;;;;;5148001;27;20045;-68
2022/10/15 05:35:43;;;;;;;40.05;22.33;;;11.90;99.90;;;;;;5148979;27;20129;-68
2022/10/15 05:38:08;;;;;;;44.90;24.00;;;11.90;99.90;;;;;;5112700;27;20042;-68
2022/10/15 05:40:34;;;;;;;40.33;23.45;;;11.90;99.90;;;;;;5147878;27;20045;-68
2022/10/15 05:43:00;;;;;;;40.40;23.80;;;11.90;99.90;;;;;;5112847;27;20042;-72
2022/10/15 05:45:25;;;;;;;42.22;22.88;;;11.90;99.90;;;;;;5128326;27;20038;-74
2022/10/15 05:47:55;;;;;;;38.10;22.58;;;11.80;99.90;;;;;;5148248;27;20091;-68
2022/10/15 05:50:21;;;;;;;40.40;22.90;;;11.80;99.90;;;;;;5128501;27;20515;-69
2022/10/15 05:52:48;;;;;;;44.45;24.45;;;11.80;99.90;;;;;;5130284;27;20309;-87
2022/10/15 05:55:14;;;;;;;38.90;23.75;;;11.80;99.90;;;;;;5129053;27;20045;-69
2022/10/15 05:57:40;;;;;;;44.08;25.05;;;11.80;99.90;;;;;;5129353;27;20049;-68
2022/10/15 06:00:07;;;;;;;42.08;24.08;;;11.80;99.90;;;;;;5129549;27;20047;-68
2022/10/15 06:02:32;;;;;;;37.90;24.13;;;11.80;99.90;;;;;;5128857;27;20446;-68
2022/10/15 06:04:58;;;;;;;42.03;23.23;;;11.80;99.90;;;;;;5129818;27;20047;-68
2022/10/15 06:07:24;;;;;;;38.58;23.88;;;11.70;99.90;;;;;;5111650;27;20046;-68
2022/10/15 06:09:50;;;;;;;40.30;23.73;;;11.70;99.90;;;;;;5148720;27;20043;-68
2022/10/15 06:12:16;;;;;;;40.80;23.67;;;11.80;99.90;;;;;;5115888;27;20046;-85
2022/10/15 06:14:42;;;;;;;39.67;24.42;;;11.80;99.90;;;;;;5137452;27;20050;-81
2022/10/15 06:17:07;;;;;;;43.08;24.77;;;11.80;99.90;;;;;;5155453;27;20081;-69
2022/10/15 06:19:33;;;;;;;42.35;23.00;;;11.80;99.90;;;;;;5153932;27;20030;-72
2022/10/15 06:21:59;;;;;;;41.80;25.42;;;11.80;99.90;;;;;;5150795;27;20058;-69
2022/10/15 06:24:24;;;;;;;39.95;24.25;;;11.80;99.90;;;;;;5130055;27;20507;-74
2022/10/15 06:26:50;;;;;;;41.60;24.67;;;11.80;99.90;;;;;;5148092;27;20058;-68
2022/10/15 06:29:16;;;;;;;43.13;25.13;;;11.80;99.90;;;;;;5128233;27;20496;-68
2022/10/15 06:31:42;;;;;;;42.65;26.45;;;11.80;99.90;;;;;;5129916;27;20069;-69
2022/10/15 06:34:07;;;;;;;42.17;25.75;;;11.80;99.90;;;;;;5147207;27;20121;-68
2022/10/15 06:36:33;;;;;;;45.58;26.17;;;11.80;99.90;;;;;;5147335;27;20039;-68
2022/10/15 06:38:59;;;;;;;45.72;26.38;;;11.80;99.90;;;;;;5129392;27;20496;-67
2022/10/15 06:41:24;;;;;;;45.15;26.35;;;11.80;99.90;;;;;;5147511;27;20039;-66
2022/10/15 06:43:50;;;;;;;46.88;26.48;;;11.80;99.90;;;;;;5147823;27;20038;-66
2022/10/15 06:46:16;;;;;;;42.47;24.90;;;11.80;99.90;;;;;;5128472;27;20449;-66
2022/10/15 06:48:42;;;;;;;40.85;24.65;;;11.80;99.90;;;;;;5147546;27;20043;-66
2022/10/15 06:51:07;;;;;;;47.50;24.83;;;11.80;99.90;;;;;;5147113;27;20043;-66
2022/10/15 06:53:33;;;;;;;42.53;25.13;;;11.80;99.90;;;;;;5147375;27;20403;-75
2022/10/15 06:56:03;;;;;;;44.78;24.75;;;11.80;99.90;;;;;;5147437;27;20062;-66
2022/10/15 06:58:29;;;;;;;48.47;24.77;;;11.80;99.90;;;;;;5147247;27;20084;-66
2022/10/15 07:01:02;;;;;;;43.17;25.50;;;11.90;99.90;;;;;;5141467;27;20124;-66
2022/10/15 07:03:28;;;;;;;38.60;25.27;;;11.90;99.90;;;;;;5128168;27;20038;-67
2022/10/15 07:05:54;;;;;;;37.90;23.85;;;11.90;99.90;;;;;;5124318;27;21761;-66
2022/10/15 07:08:20;;;;;;;46.97;26.83;;;11.90;99.90;;;;;;5145956;27;20038;-67
2022/10/15 07:10:46;;;;;;;45.17;26.88;;;11.90;99.90;;;;;;5104627;27;20047;-66
2022/10/15 07:13:13;;;;;;;44.15;25.95;;;11.90;99.90;;;;;;5120600;27;20175;-66
2022/10/15 07:15:38;;;;;;;48.70;26.10;;;12.00;99.90;;;;;;5130648;27;20043;-66
2022/10/15 07:18:04;;;;;;;43.83;26.95;;;12.00;99.90;;;;;;5148875;27;20043;-66
2022/10/15 07:20:30;;;;;;;42.60;26.17;;;12.00;99.90;;;;;;5146002;27;20038;-66
2022/10/15 07:22:58;;;;;;;47.00;26.52;;;12.00;99.90;;;;;;5131189;27;20412;-66
2022/10/15 07:25:25;;;;;;;42.03;26.98;;;12.00;99.90;;;;;;5131241;27;20547;-66
2022/10/15 07:27:51;;;;;;;42.42;25.50;;;12.00;99.90;;;;;;5146999;27;20170;-67
2022/10/15 07:30:17;;;;;;;48.72;27.23;;;12.10;99.90;;;;;;5132621;27;20057;-77
2022/10/15 07:32:42;;;;;;;48.65;27.08;;;12.10;99.90;;;;;;5132296;27;20043;-66
2022/10/15 07:35:09;;;;;;;43.35;26.48;;;12.10;99.90;;;;;;5150833;27;20027;-67
2022/10/15 07:37:34;;;;;;;50.30;27.23;;;12.10;99.90;;;;;;5131760;27;20143;-66
2022/10/15 07:40:00;;;;;;;44.00;26.05;;;12.20;99.90;;;;;;5151219;27;20062;-67
2022/10/15 07:42:26;;;;;;;47.50;27.33;;;12.20;99.90;;;;;;5150675;27;20496;-66
2022/10/15 07:44:52;;;;;;;42.40;26.27;;;12.20;99.90;;;;;;5151067;27;20039;-67
2022/10/15 07:47:18;;;;;;;48.30;27.30;;;12.30;99.90;;;;;;5131998;27;20074;-66
2022/10/15 07:49:44;;;;;;;47.67;25.95;;;12.30;99.90;;;;;;5132457;27;20370;-67
2022/10/15 07:52:09;;;;;;;48.85;26.85;;;12.30;99.90;;;;;;5131758;27;20555;-66
2022/10/15 07:54:36;;;;;;;48.83;27.48;;;12.40;99.90;;;;;;5114715;27;20042;-66
2022/10/15 07:57:02;;;;;;;39.88;25.52;;;12.40;99.90;;;;;;5150398;27;20082;-66
2022/10/15 07:59:28;;;;;;;47.67;27.50;;;12.40;99.90;;;;;;5150142;27;20050;-67
2022/10/15 08:01:53;;;;;;;48.45;27.08;;;12.50;99.90;;;;;;5147967;27;20084;-67
2022/10/15 08:04:19;;;;;;;48.40;25.95;;;12.60;99.90;;;;;;5111691;27;20051;-68
2022/10/15 08:06:45;;;;;;;46.65;26.77;;;12.60;99.90;;;;;;5129684;27;20039;-66
2022/10/15 08:09:11;;;;;;;45.17;26.25;;;12.70;99.90;;;;;;5141063;27;20077;-67
2022/10/15 08:11:37;;;;;;;43.35;25.92;;;12.70;99.90;;;;;;5139503;27;20042;-67
2022/10/15 08:14:03;;;;;;;40.65;25.05;;;12.60;99.90;;;;;;5150296;27;20062;-67
2022/10/15 08:16:28;;;;;;;39.28;24.15;;;12.60;99.90;;;;;;5131750;27;20069;-67
2022/10/15 08:18:54;;;;;;;44.35;26.08;;;12.60;99.90;;;;;;5105705;27;20039;-83
2022/10/15 08:21:20;;;;;;;42.83;26.38;;;12.70;99.90;;;;;;5114381;27;20032;-67
2022/10/15 08:23:46;;;;;;;42.03;25.88;;;12.70;99.90;;;;;;5125322;27;20095;-67
2022/10/15 08:26:12;;;;;;;42.15;25.27;;;12.70;99.90;;;;;;5117240;27;20043;-67
2022/10/15 08:28:38;;;;;;;49.50;25.05;;;12.70;99.90;;;;;;5134456;27;20099;-67
2022/10/15 08:31:04;;;;;;;45.53;24.48;;;12.80;99.90;;;;;;5133579;27;20049;-67
2022/10/15 08:33:30;;;;;;;43.45;24.48;;;12.80;99.90;;;;;;5118598;27;20085;-67
2022/10/15 08:35:56;;;;;;;43.53;25.02;;;12.80;99.90;;;;;;5149946;27;20039;-67
2022/10/15 08:38:22;;;;;;;47.67;25.75;;;12.90;99.90;;;;;;5149786;27;20035;-67
2022/10/15 08:40:53;;;;;;;45.60;26.73;;;13.10;99.90;;;;;;5149281;27;20031;-67
2022/10/15 08:43:30;;;;;;;43.85;23.38;;;13.30;99.90;;;;;;5149477;27;20087;-74
2022/10/15 08:46:00;;;;;;;45.08;24.92;;;13.40;99.90;;;;;;5138979;27;20126;-67
2022/10/15 08:48:36;;;;;;;41.33;24.80;;;13.50;99.90;;;;;;5115553;27;20039;-67
2022/10/15 08:51:08;;;;;;;39.78;23.13;;;13.60;99.90;;;;;;5131547;27;20047;-67
2022/10/15 08:53:44;;;;;;;41.55;23.63;;;13.70;99.90;;;;;;5138434;27;20429;-68
2022/10/15 08:56:35;;;;;;;38.63;22.98;;;13.70;99.90;;;;;;5149770;27;20106;-67
2022/10/15 08:59:16;;;;;;;39.70;23.52;;;13.80;99.90;;;;;;5121916;27;20100;-67
2022/10/15 09:02:01;;;;;;;36.47;21.92;;;13.90;99.90;;;;;;5129930;27;20122;-67
2022/10/15 09:04:27;;;;;;;38.40;23.35;;;14.00;99.90;;;;;;5121285;27;20046;-89
2022/10/15 09:07:07;;;;;;;39.22;24.95;;;14.10;99.90;;;;;;5129882;27;20050;-67
2022/10/15 09:09:47;;;;;;;39.70;23.77;;;14.20;99.90;;;;;;5138840;27;20088;-67
2022/10/15 09:12:40;;;;;;;44.70;24.20;;;14.30;99.90;;;;;;5131210;27;20475;-79
2022/10/15 09:15:13;;;;;;;36.50;22.63;;;14.40;99.90;;;;;;5130392;27;20070;-67
2022/10/15 09:17:40;;;;;;;39.88;23.40;;;14.40;99.90;;;;;;5149236;27;20138;-67
2022/10/15 09:20:13;;;;;;;35.42;22.25;;;14.50;99.90;;;;;;5130493;27;20412;-68
2022/10/15 09:22:39;;;;;;;34.95;22.75;;;14.60;99.90;;;;;;5147922;27;20087;-67
2022/10/15 09:25:22;;;;;;;42.65;23.90;;;14.60;99.90;;;;;;5149846;27;20392;-67
2022/10/15 09:27:50;;;;;;;32.97;20.85;;;14.70;99.90;;;;;;5148759;27;20047;-67
2022/10/15 09:30:29;;;;;;;38.28;23.80;;;14.60;99.90;;;;;;5148239;27;20050;-67
2022/10/15 09:33:02;;;;;;;33.65;21.90;;;14.50;99.90;;;;;;5129102;27;20038;-67
2022/10/15 09:35:33;;;;;;;34.83;21.98;;;14.50;99.90;;;;;;5129738;27;20457;-67
2022/10/15 09:38:36;;;;;;;32.63;21.10;;;14.60;99.90;;;;;;5130156;27;20046;-67
2022/10/15 09:41:17;;;;;;;32.85;20.67;;;14.60;99.90;;;;;;5126190;27;20049;-79
2022/10/15 09:43:49;;;;;;;30.45;19.73;;;14.60;99.90;;;;;;5149506;27;20046;-67
2022/10/15 09:46:15;;;;;;;31.95;20.83;;;14.60;99.90;;;;;;5148301;27;20151;-67
2022/10/15 09:48:47;;;;;;;31.92;20.80;;;14.60;99.90;;;;;;5147233;27;20034;-67
2022/10/15 09:51:21;;;;;;;27.80;19.33;;;14.90;99.90;;;;;;5148782;27;20038;-68
2022/10/15 09:54:26;;;;;;;33.47;18.95;;;15.10;99.90;;;;;;5124039;27;20050;-67
2022/10/15 09:56:56;;;;;;;29.17;18.83;;;15.00;99.90;;;;;;5147771;27;20530;-67
2022/10/15 09:59:23;;;;;;;29.83;20.35;;;15.10;99.90;;;;;;5129612;27;20082;-67
2022/10/15 10:02:17;;;;;;;23.30;14.45;;;15.20;99.90;;;;;;5147380;27;20201;-67
2022/10/15 10:04:43;;;;;;;27.63;17.55;;;15.20;99.90;;;;;;5119197;27;20084;-67
2022/10/15 10:07:35;;;;;;;29.33;19.15;;;15.20;99.90;;;;;;5148368;27;20042;-67
2022/10/15 10:10:20;;;;;;;31.27;17.45;;;15.30;99.90;;;;;;5128525;27;20053;-81
2022/10/15 10:12:46;;;;;;;22.25;16.08;;;15.30;99.90;;;;;;5147510;27;20403;-68
2022/10/15 10:15:32;;;;;;;22.77;15.30;;;15.20;99.90;;;;;;5147875;27;20154;-67
2022/10/15 10:17:57;;;;;;;21.13;16.80;;;15.00;99.90;;;;;;5147562;27;20043;-67
2022/10/15 10:20:26;;;;;;;22.75;16.98;;;14.90;99.90;;;;;;5147859;27;20050;-67
2022/10/15 10:22:55;;;;;;;23.00;16.90;;;14.80;99.90;;;;;;5147377;27;20053;-66
2022/10/15 10:25:37;;;;;;;27.50;17.52;;;14.80;99.90;;;;;;5147575;27;20090;-77
2022/10/15 10:28:06;;;;;;;23.05;16.25;;;14.70;99.90;;;;;;5127881;27;20061;-88
2022/10/15 10:30:38;;;;;;;23.85;16.88;;;14.70;99.90;;;;;;5147978;27;20489;-67
2022/10/15 10:33:05;;;;;;;19.90;14.65;;;14.60;99.90;;;;;;5146974;27;20488;-67
2022/10/15 10:35:50;;;;;;;24.65;17.50;;;14.60;99.90;;;;;;5128868;27;20042;-66
2022/10/15 10:38:19;;;;;;;24.55;15.43;;;14.60;99.90;;;;;;5147739;27;20035;-67
2022/10/15 10:40:49;;;;;;;23.23;15.97;;;14.50;99.90;;;;;;5111287;27;20432;-67
2022/10/15 10:43:22;;;;;;;21.70;16.10;;;14.50;99.90;;;;;;5146105;27;20102;-67
2022/10/15 10:46:01;;;;;;;21.85;15.30;;;14.40;99.90;;;;;;5146626;27;20039;-67
2022/10/15 10:48:28;;;;;;;24.63;16.77;;;14.40;99.90;;;;;;5146487;27;20042;-67
2022/10/15 10:51:12;;;;;;;20.20;14.48;;;14.30;99.90;;;;;;5146472;27;20121;-67
2022/10/15 10:53:58;;;;;;;22.42;14.25;;;14.20;99.90;;;;;;5146230;27;20037;-66
2022/10/15 10:56:39;;;;;;;24.65;14.85;;;14.20;99.90;;;;;;5147243;27;20051;-66
2022/10/15 10:59:19;;;;;;;25.10;15.80;;;14.10;99.90;;;;;;5147083;27;20082;-67
2022/10/15 11:01:46;;;;;;;24.42;15.25;;;14.10;99.90;;;;;;5128310;27;20404;-66
2022/10/15 11:04:26;;;;;;;26.23;16.23;;;14.10;99.90;;;;;;5147358;27;20122;-67
2022/10/15 11:07:04;;;;;;;28.83;16.05;;;14.00;99.90;;;;;;5146280;27;20058;-67
2022/10/15 11:09:53;;;;;;;28.85;14.73;;;14.10;99.90;;;;;;5147591;27;20500;-67
2022/10/15 11:12:50;;;;;;;29.52;16.25;;;14.00;99.90;;;;;;5146923;27;20050;-66
2022/10/15 11:16:08;;;;;;;23.77;14.27;;;14.10;99.90;;;;;;5134167;27;20051;-67
2022/10/15 11:18:53;;;;;;;24.20;15.73;;;14.20;99.90;;;;;;5129040;27;20119;-66
2022/10/15 11:21:28;;;;;;;22.25;15.57;;;14.20;99.90;;;;;;5147070;27;20491;-67
2022/10/15 11:24:24;;;;;;;22.63;14.63;;;14.30;99.90;;;;;;5149620;27;20042;-67
2022/10/15 11:27:22;;;;;;;22.73;14.77;;;14.30;99.90;;;;;;5132338;27;20062;-67
2022/10/15 11:29:48;;;;;;;19.13;13.25;;;14.20;99.90;;;;;;5151072;27;20049;-67
2022/10/15 11:32:32;;;;;;;20.88;13.27;;;14.20;99.90;;;;;;5147984;27;20035;-66
2022/10/15 11:35:24;;;;;;;21.73;14.05;;;14.20;99.90;;;;;;5129112;27;20039;-67
2022/10/15 11:37:57;;;;;;;22.52;13.98;;;14.20;99.90;;;;;;5127826;27;20050;-67
2022/10/15 11:40:44;;;;;;;19.33;13.55;;;14.20;99.90;;;;;;5128142;27;20046;-66
2022/10/15 11:43:46;;;;;;;20.85;13.60;;;14.30;99.90;;;;;;5147404;27;20121;-66
2022/10/15 11:46:18;;;;;;;21.40;12.65;;;14.30;99.90;;;;;;5139836;27;20414;-67
2022/10/15 11:48:49;;;;;;;17.92;12.85;;;14.40;99.90;;;;;;5145046;27;20039;-67
2022/10/15 11:51:36;;;;;;;19.05;12.57;;;14.40;99.90;;;;;;5140150;27;20049;-66
2022/10/15 11:54:32;;;;;;;21.73;12.90;;;14.60;99.90;;;;;;5127615;27;20608;-66
2022/10/15 11:57:01;;;;;;;20.67;13.55;;;14.60;99.90;;;;;;5139399;27;20031;-66
2022/10/15 11:59:52;;;;;;;16.70;11.43;;;14.70;99.90;;;;;;5146324;27;20043;-66
2022/10/15 12:02:20;;;;;;;15.43;10.27;;;14.80;99.90;;;;;;5143719;27;20042;-66
2022/10/15 12:04:54;;;;;;;17.50;11.85;;;14.80;99.90;;;;;;5151060;27;20068;-66
2022/10/15 12:07:30;;;;;;;19.13;12.43;;;14.80;99.90;;;;;;5143649;27;20046;-66
2022/10/15 12:10:24;;;;;;;18.15;12.27;;;14.70;99.90;;;;;;5148860;27;20049;-66
2022/10/15 12:12:58;;;;;;;16.98;11.90;;;14.70;99.90;;;;;;5120742;27;20061;-66
2022/10/15 12:15:35;;;;;;;18.17;11.20;;;14.70;99.90;;;;;;5150705;27;20392;-66
2022/10/15 12:18:13;;;;;;;14.13;10.65;;;14.70;99.90;;;;;;5150647;27;20039;-66
2022/10/15 12:20:41;;;;;;;15.05;10.25;;;14.70;99.90;;;;;;5124784;27;20514;-66
2022/10/15 12:23:24;;;;;;;17.15;11.40;;;14.80;99.90;;;;;;5149950;27;20484;-66
2022/10/15 12:25:50;;;;;;;13.95;10.93;;;14.80;99.90;;;;;;5131498;27;20517;-66
2022/10/15 12:28:29;;;;;;;16.55;11.82;;;14.80;99.90;;;;;;5149743;27;20480;-66
2022/10/15 12:31:01;;;;;;;12.68;10.35;;;14.90;99.90;;;;;;5149161;27;20047;-67
2022/10/15 12:33:44;;;;;;;14.38;11.27;;;14.90;99.90;;;;;;5149560;27;20038;-66
2022/10/15 12:36:27;;;;;;;15.88;10.00;;;14.90;99.90;;;;;;5131472;27;20046;-66
2022/10/15 12:39:07;;;;;;;14.13;10.60;;;15.00;99.90;;;;;;5131430;27;20121;-66
2022/10/15 12:41:45;;;;;;;14.13;9.05;;;15.00;99.90;;;;;;5147028;27;20109;-66
2022/10/15 12:44:33;;;;;;;14.88;10.60;;;15.10;99.90;;;;;;5131640;27;20519;-75
2022/10/15 12:46:59;;;;;;;15.73;10.93;;;15.10;99.90;;;;;;5116777;27;20046;-67
2022/10/15 12:49:25;;;;;;;12.40;9.88;;;15.10;99.90;;;;;;5131043;27;20039;-73